Borger, TX

10:01 PM CDT on July 02, 2015 (GMT -0500)
Yucca Park | | Change Station
CLOSE
Current Station
Personal Weather Station
Location: Borger, TX
Elevation: 3156 ft
Nearby Weather Stations

Elev 3156 ft 35.65 °N, 101.38 °W | Updated 6 seconds ago

Thunderstorm
Thunderstorm
70.9 °F
Feels Like 70.9 °F
N
1.0
Wind Variable Wind from SSE
Gusts 4.0 mph

Today
High -- | Low -- °F
--% Chance of Precip.
Yesterday
High -- | Low -- °F
Precip. -- in
6:33 AM 9:05 PM
Full, 99% visible
Pressure 29.90 in
Visibility 10.0 miles
Clouds Few 3000 ft
Few 9500 ft
Dew Point 68 °F
Humidity 90%
Rainfall 0.07 in
Snow Depth Not available.
UV 0 out of 12
Pollen 4.00 out of 12
Air Quality Not available.
Flu Activity Not available.
METAR KBGD 030251Z AUTO 12006KT 10SM TS FEW030 FEW095 22/20 A3001 RMK AO2 PK WND 04031/0159 LTG DSNT SE-SW RAB19E44 TSB04 SLP125 P0006 60006 T02170200 53022

More Conditions Fewer Conditions

Pressure 29.90 in
Visibility 10.0 miles
Clouds Few 3000 ft
Few 9500 ft
Dew Point 68 °F
Humidity 90%
Rainfall 0.07 in
Snow Depth Not available.
UV 0 out of 12
Pollen 4.00 out of 12
Air Quality Not available.
Flu Activity Not available.
METAR KBGD 030251Z AUTO 12006KT 10SM TS FEW030 FEW095 22/20 A3001 RMK AO2 PK WND 04031/0159 LTG DSNT SE-SW RAB19E44 TSB04 SLP125 P0006 60006 T02170200 53022

More Conditions Fewer Conditions

Nowcast | as of 9:34 PM CDT on July 2, 2015

A line of showers and thunderstorms has developed along a line from Dumas to Allison. This line is moving southeast at 30 mph. The stronger storms will be capable of producing gusty winds up to 35 mph and locally heavy rain with lots of lightning. Cities impacted will include Fritch...Amarillo...White Deer...Claude...Groom...Clarendon ...Shamrock and Wellington.

×

10-Day Weather Forecast

×

Almanac

Astronomy

Jul. 02, 2015 Rise Set
Actual Time
Civil Twilight
Nautical Twilight
Astronomical Twilight
Moon
Length of Visible Light
Length of Day
Tomorrow will be .
, % of the Moon is Illuminated

Today's Extremes

State Highs State Lows

Community

WunderPhotos

Upload Photos

1,834,600 photos uploaded!

WunderBlogs® & News

Nearby

Air Quality

  Air Quality AQ Index Pollutant
Not available.

Snow Depth

Station Depth Elevation

Earthquake Activity

City Distance Mag. Time & Date
Minimum magnitude displayed is 2.5.

Coastal Water Temperatures

Place Temperature

Stations

Nearby Weather Stations

Station Location Temp. Windchill Dew Point Humidity Wind Precip. Elev Updated Type